createdAt,value
2022-07-31T00:00:30.250Z,4.00
2022-07-31T00:02:58.751Z,4.00
2022-07-31T00:05:27.838Z,4.13
2022-07-31T00:07:56.383Z,4.00
2022-07-31T00:10:25.130Z,4.03
2022-07-31T00:12:55.014Z,4.83
2022-07-31T00:15:23.632Z,4.23
2022-07-31T00:17:52.690Z,4.10
2022-07-31T00:20:21.277Z,4.27
2022-07-31T00:22:50.599Z,4.57
2022-07-31T00:25:20.145Z,4.20
2022-07-31T00:27:48.575Z,3.97
2022-07-31T00:30:18.404Z,4.10
2022-07-31T00:32:48.970Z,4.00
2022-07-31T00:35:20.675Z,4.53
2022-07-31T00:37:49.443Z,4.50
2022-07-31T00:40:18.953Z,4.40
2022-07-31T00:42:47.354Z,4.97
2022-07-31T00:45:17.185Z,5.20
2022-07-31T00:47:50.594Z,5.27
2022-07-31T00:50:24.277Z,4.90
2022-07-31T00:52:52.641Z,4.77
2022-07-31T00:55:22.671Z,4.70
2022-07-31T00:57:51.051Z,5.27
2022-07-31T01:00:20.987Z,4.77
2022-07-31T01:02:49.405Z,4.80
2022-07-31T01:05:19.063Z,4.60
2022-07-31T01:07:48.904Z,5.70
2022-07-31T01:10:25.832Z,5.30
2022-07-31T01:12:57.991Z,5.03
2022-07-31T01:15:29.666Z,4.87
2022-07-31T01:17:59.662Z,5.17
2022-07-31T01:20:29.736Z,4.77
2022-07-31T01:23:18.960Z,5.10
2022-07-31T01:26:20.273Z,4.63
2022-07-31T01:29:15.558Z,4.63
2022-07-31T01:31:49.515Z,5.30
2022-07-31T01:34:25.838Z,4.80
2022-07-31T01:37:05.036Z,5.83
2022-07-31T01:39:37.155Z,5.13
2022-07-31T01:42:09.131Z,5.50
2022-07-31T01:44:45.535Z,5.60
2022-07-31T01:47:18.354Z,5.50
2022-07-31T01:49:49.336Z,5.67
2022-07-31T01:52:20.562Z,5.30
2022-07-31T01:54:50.673Z,5.80
2022-07-31T01:57:22.523Z,6.33
2022-07-31T02:00:01.152Z,5.00
2022-07-31T02:02:45.748Z,5.37
2022-07-31T02:05:17.629Z,4.97
2022-07-31T02:07:47.450Z,5.47
2022-07-31T02:10:17.844Z,5.67
2022-07-31T02:12:47.607Z,6.00
2022-07-31T02:15:20.431Z,5.23
2022-07-31T02:17:50.336Z,5.70
2022-07-31T02:20:26.031Z,5.43
2022-07-31T02:22:57.315Z,6.03
2022-07-31T02:25:27.151Z,5.60
2022-07-31T02:27:59.258Z,5.20
2022-07-31T02:30:39.404Z,5.03
2022-07-31T02:33:12.958Z,5.40
2022-07-31T02:35:45.570Z,5.10
2022-07-31T02:38:23.166Z,5.50
2022-07-31T02:41:00.475Z,6.00
2022-07-31T02:43:32.948Z,5.97
2022-07-31T02:46:10.187Z,6.67
2022-07-31T02:48:39.423Z,5.83
2022-07-31T02:51:11.361Z,5.87
2022-07-31T02:53:39.897Z,5.83
2022-07-31T02:56:11.287Z,6.50
2022-07-31T02:58:42.852Z,6.10
2022-07-31T03:01:21.302Z,6.50
2022-07-31T03:03:50.208Z,6.37
2022-07-31T03:06:19.949Z,6.00
2022-07-31T03:08:48.402Z,6.10
2022-07-31T03:11:20.988Z,5.93
2022-07-31T03:13:51.098Z,6.60
2022-07-31T03:16:22.440Z,6.60
2022-07-31T03:18:51.563Z,6.13
2022-07-31T03:21:21.137Z,6.40
2022-07-31T03:23:50.682Z,7.67
2022-07-31T03:26:22.675Z,6.60
2022-07-31T03:28:51.132Z,7.30
2022-07-31T03:31:21.341Z,6.57
2022-07-31T03:33:49.853Z,6.87
2022-07-31T03:36:18.679Z,6.90
2022-07-31T03:38:50.449Z,6.00
2022-07-31T03:41:38.558Z,6.20
2022-07-31T03:44:07.555Z,6.50
2022-07-31T03:46:37.455Z,6.20
2022-07-31T03:49:06.343Z,5.97
2022-07-31T03:51:35.759Z,5.93
2022-07-31T03:54:04.673Z,5.80
2022-07-31T03:56:58.641Z,5.60
2022-07-31T03:59:29.838Z,5.40
2022-07-31T04:02:07.991Z,6.17
2022-07-31T04:04:45.086Z,5.67
2022-07-31T04:07:13.509Z,5.50
2022-07-31T04:09:42.721Z,5.33
2022-07-31T04:12:12.734Z,5.57
2022-07-31T04:14:41.944Z,5.87
2022-07-31T04:17:11.800Z,5.83
2022-07-31T04:19:40.275Z,5.73
2022-07-31T04:22:09.489Z,6.00
2022-07-31T04:24:39.437Z,5.70
2022-07-31T04:27:29.142Z,6.27
2022-07-31T04:29:58.293Z,5.53
2022-07-31T04:32:28.085Z,5.47
2022-07-31T04:35:02.928Z,6.80
2022-07-31T04:37:32.077Z,5.10
2022-07-31T04:40:00.879Z,5.60
2022-07-31T04:42:32.865Z,5.37
2022-07-31T04:45:01.768Z,5.70
2022-07-31T04:47:31.636Z,5.63
2022-07-31T04:50:00.207Z,6.30
2022-07-31T04:52:28.693Z,6.40
2022-07-31T04:55:03.379Z,6.00
2022-07-31T04:57:31.837Z,5.43
2022-07-31T05:00:01.395Z,5.30
2022-07-31T05:02:34.975Z,5.67
2022-07-31T05:05:03.945Z,5.40
2022-07-31T05:07:35.468Z,5.47
2022-07-31T05:10:30.523Z,5.63
2022-07-31T05:12:59.052Z,5.30
2022-07-31T05:15:27.508Z,5.57
2022-07-31T05:17:59.354Z,6.17
2022-07-31T05:20:46.608Z,6.10
2022-07-31T05:23:46.304Z,5.63
2022-07-31T05:26:22.403Z,6.20
2022-07-31T05:28:57.879Z,5.60
2022-07-31T05:31:27.918Z,6.00
2022-07-31T05:33:59.540Z,5.50
2022-07-31T05:36:28.233Z,5.40
2022-07-31T05:38:56.758Z,6.30
2022-07-31T05:41:45.205Z,5.37
2022-07-31T05:44:25.690Z,7.00
2022-07-31T05:49:26.803Z,5.93
2022-07-31T05:51:56.616Z,5.83
2022-07-31T05:54:25.219Z,5.30
2022-07-31T05:57:12.126Z,5.70
2022-07-31T06:00:03.799Z,5.90
2022-07-31T06:02:40.701Z,5.20
2022-07-31T06:05:36.652Z,6.83
2022-07-31T06:08:05.577Z,5.90
2022-07-31T06:10:41.839Z,6.80
2022-07-31T06:13:10.471Z,6.10
2022-07-31T06:15:39.302Z,6.17
2022-07-31T06:18:14.950Z,6.40
2022-07-31T06:20:44.961Z,6.60
2022-07-31T06:23:19.822Z,6.60
2022-07-31T06:25:59.556Z,6.20
2022-07-31T06:28:33.804Z,6.00
2022-07-31T06:31:20.623Z,6.93
2022-07-31T06:33:50.820Z,7.43
2022-07-31T06:36:24.285Z,6.90
2022-07-31T06:38:59.411Z,6.10
2022-07-31T06:41:47.417Z,6.20
2022-07-31T06:44:46.130Z,6.87
2022-07-31T06:47:33.648Z,6.63
2022-07-31T06:50:12.828Z,6.07
2022-07-31T06:52:49.691Z,7.00
2022-07-31T06:55:18.168Z,5.77
2022-07-31T06:57:46.701Z,5.63
2022-07-31T07:00:20.257Z,5.80
2022-07-31T07:02:49.730Z,5.73
2022-07-31T07:05:18.665Z,5.70
2022-07-31T07:07:52.262Z,5.53
2022-07-31T07:10:20.829Z,5.47
2022-07-31T07:13:12.286Z,6.17
2022-07-31T07:15:42.434Z,5.10
2022-07-31T07:18:11.803Z,5.40
2022-07-31T07:20:48.425Z,5.03
2022-07-31T07:23:18.502Z,4.80
2022-07-31T07:26:10.150Z,5.57
2022-07-31T07:28:39.635Z,5.40
2022-07-31T07:31:11.074Z,5.83
2022-07-31T07:33:42.526Z,4.90
2022-07-31T07:36:24.832Z,4.53
2022-07-31T07:39:05.439Z,4.97
2022-07-31T07:41:35.617Z,4.50
2022-07-31T07:44:04.173Z,4.83
2022-07-31T07:46:32.744Z,4.63
2022-07-31T07:49:06.773Z,4.70
2022-07-31T07:51:59.398Z,5.30
2022-07-31T07:54:36.172Z,4.40
2022-07-31T07:57:23.435Z,4.73
2022-07-31T08:00:10.914Z,4.50
2022-07-31T08:03:46.840Z,4.90
2022-07-31T08:05:38.763Z,4.83
2022-07-31T08:08:07.281Z,4.97
2022-07-31T08:10:52.030Z,5.00
2022-07-31T08:13:27.943Z,5.90
2022-07-31T08:16:15.265Z,5.00
2022-07-31T08:18:46.372Z,5.00
2022-07-31T08:21:15.058Z,4.10
2022-07-31T08:23:43.541Z,4.60
2022-07-31T08:26:13.921Z,4.20
2022-07-31T08:28:50.818Z,4.73
2022-07-31T08:31:23.806Z,5.70
2022-07-31T08:34:30.793Z,4.00
2022-07-31T08:37:50.935Z,4.60
2022-07-31T08:39:52.067Z,5.20
2022-07-31T08:42:21.998Z,4.30
2022-07-31T08:44:50.481Z,3.77
2022-07-31T08:47:23.607Z,3.70
2022-07-31T08:49:53.953Z,3.70
2022-07-31T08:52:26.179Z,4.13
2022-07-31T08:55:08.471Z,3.63
2022-07-31T08:57:38.428Z,3.67
2022-07-31T09:00:09.018Z,3.57
2022-07-31T09:02:39.460Z,3.50
2022-07-31T09:05:42.279Z,3.30
2022-07-31T09:08:14.965Z,3.23
2022-07-31T09:10:50.041Z,3.30
2022-07-31T09:13:21.440Z,4.13
2022-07-31T09:15:52.695Z,3.73
2022-07-31T09:18:25.158Z,2.93
2022-07-31T09:21:09.381Z,3.10
2022-07-31T09:23:47.388Z,3.60
2022-07-31T09:26:16.710Z,2.90
2022-07-31T09:28:49.218Z,3.03
2022-07-31T09:31:17.738Z,3.33
2022-07-31T09:34:09.331Z,3.63
2022-07-31T09:36:40.798Z,2.67
2022-07-31T09:39:27.805Z,3.53
2022-07-31T09:42:20.508Z,3.17
2022-07-31T09:44:56.016Z,3.30
2022-07-31T09:47:28.971Z,3.70
2022-07-31T09:50:02.119Z,2.93
2022-07-31T09:52:33.638Z,3.10
2022-07-31T09:55:15.815Z,3.07
2022-07-31T09:57:55.175Z,3.40
2022-07-31T10:00:26.754Z,3.27
2022-07-31T10:02:57.427Z,3.07
2022-07-31T10:05:29.054Z,2.60
2022-07-31T10:08:02.088Z,2.60
2022-07-31T10:10:53.789Z,3.27
2022-07-31T10:13:26.327Z,3.10
2022-07-31T10:16:01.067Z,2.80
2022-07-31T10:18:52.086Z,3.50
2022-07-31T10:22:02.910Z,3.37
2022-07-31T10:24:45.407Z,3.37
2022-07-31T10:27:16.224Z,3.13
2022-07-31T10:29:45.966Z,3.10
2022-07-31T10:32:15.966Z,3.20
2022-07-31T10:35:07.511Z,3.37
2022-07-31T10:38:13.815Z,3.40
2022-07-31T10:41:12.959Z,3.50
2022-07-31T10:43:48.042Z,2.90
2022-07-31T10:46:34.668Z,3.40
2022-07-31T10:49:40.897Z,2.93
2022-07-31T10:52:34.634Z,4.23
2022-07-31T10:55:21.934Z,3.40
2022-07-31T10:58:10.648Z,3.20
2022-07-31T11:01:07.034Z,4.10
2022-07-31T11:04:00.852Z,3.37
2022-07-31T11:06:44.509Z,3.90
2022-07-31T11:09:51.388Z,3.40
2022-07-31T11:13:01.564Z,3.30
2022-07-31T11:15:47.271Z,2.97
2022-07-31T11:18:34.859Z,3.13
2022-07-31T11:21:35.959Z,3.77
2022-07-31T11:24:02.941Z,4.07
2022-07-31T11:26:41.641Z,3.60
2022-07-31T11:29:58.627Z,4.47
2022-07-31T11:32:15.341Z,7.20
2022-07-31T11:34:49.066Z,3.40
2022-07-31T11:37:20.545Z,3.00
2022-07-31T11:39:52.820Z,3.77
2022-07-31T11:42:26.430Z,3.60
2022-07-31T11:45:11.134Z,4.13
2022-07-31T11:48:11.406Z,4.60
2022-07-31T11:50:32.352Z,5.73
2022-07-31T11:53:07.106Z,4.10
2022-07-31T11:55:50.096Z,4.17
2022-07-31T11:58:21.209Z,6.17
2022-07-31T12:00:52.457Z,21.77
2022-07-31T12:03:23.367Z,7.00
2022-07-31T12:05:54.039Z,6.93
2022-07-31T12:08:24.213Z,8.77
2022-07-31T12:10:56.372Z,5.30
2022-07-31T12:13:26.468Z,4.13
2022-07-31T12:15:57.248Z,4.63
2022-07-31T12:18:27.132Z,4.70
2022-07-31T12:20:58.167Z,4.80
2022-07-31T12:23:40.201Z,13.33
2022-07-31T12:26:14.043Z,9.63
2022-07-31T12:28:43.751Z,4.20
2022-07-31T12:31:12.220Z,3.93
2022-07-31T12:33:45.588Z,3.80
2022-07-31T12:36:16.294Z,3.57
2022-07-31T12:38:49.131Z,5.53
2022-07-31T12:41:19.185Z,5.07
2022-07-31T12:43:51.557Z,5.80
2022-07-31T12:46:22.868Z,7.37
2022-07-31T12:48:52.068Z,3.10
2022-07-31T12:51:45.284Z,3.80
2022-07-31T12:54:10.155Z,3.20
2022-07-31T12:56:41.362Z,4.00
2022-07-31T12:59:10.563Z,3.60
2022-07-31T13:01:39.224Z,3.07
2022-07-31T13:04:18.651Z,4.07
2022-07-31T13:06:52.085Z,5.00
2022-07-31T13:09:21.156Z,3.27
2022-07-31T13:11:57.364Z,3.17
2022-07-31T13:14:26.315Z,3.50
2022-07-31T13:16:56.195Z,3.17
2022-07-31T13:19:24.853Z,3.00
2022-07-31T13:21:56.875Z,2.80
2022-07-31T13:24:25.741Z,2.73
2022-07-31T13:26:58.716Z,2.83
2022-07-31T13:29:27.240Z,3.27
2022-07-31T13:31:56.109Z,3.60
2022-07-31T13:34:24.564Z,3.37
2022-07-31T13:36:52.966Z,3.00
2022-07-31T13:39:21.387Z,3.37
2022-07-31T13:41:49.875Z,3.00
2022-07-31T13:44:20.042Z,3.23
2022-07-31T13:46:48.495Z,3.00
2022-07-31T13:49:17.036Z,2.60
2022-07-31T13:51:45.634Z,3.60
2022-07-31T13:54:14.432Z,3.33
2022-07-31T13:56:43.769Z,3.70
2022-07-31T13:59:13.958Z,3.60
2022-07-31T14:02:03.822Z,5.87
2022-07-31T14:04:38.192Z,3.53
2022-07-31T14:07:09.269Z,2.50
2022-07-31T14:09:38.053Z,3.20
2022-07-31T14:12:07.733Z,3.03
2022-07-31T14:14:38.080Z,3.00
2022-07-31T14:17:07.865Z,2.77
2022-07-31T14:19:43.739Z,3.30
2022-07-31T14:22:14.419Z,2.60
2022-07-31T14:24:49.402Z,3.03
2022-07-31T14:27:21.189Z,2.47
2022-07-31T14:29:49.801Z,3.57
2022-07-31T14:32:21.930Z,2.97
2022-07-31T14:34:50.897Z,2.93
2022-07-31T14:37:20.592Z,3.20
2022-07-31T14:39:49.150Z,2.87
2022-07-31T14:42:22.478Z,2.60
2022-07-31T14:44:54.511Z,3.27
2022-07-31T14:47:24.379Z,2.80
2022-07-31T14:50:06.582Z,3.00
2022-07-31T14:52:36.912Z,2.90
2022-07-31T14:55:06.113Z,3.10
2022-07-31T14:57:34.950Z,2.77
2022-07-31T15:00:03.462Z,2.70
2022-07-31T15:02:33.278Z,3.00
2022-07-31T15:06:40.035Z,2.83
2022-07-31T15:07:50.382Z,3.10
2022-07-31T15:10:19.061Z,3.60
2022-07-31T15:12:47.511Z,2.50
2022-07-31T15:15:15.853Z,3.20
2022-07-31T15:17:45.561Z,6.10
2022-07-31T15:20:14.743Z,4.10
2022-07-31T15:22:43.165Z,3.50
2022-07-31T15:25:12.568Z,4.10
2022-07-31T15:27:41.059Z,3.10
2022-07-31T15:30:11.099Z,3.10
2022-07-31T15:32:41.017Z,3.93
2022-07-31T15:35:13.807Z,4.83
2022-07-31T15:37:45.437Z,2.93
2022-07-31T15:40:16.964Z,3.10
2022-07-31T15:42:46.890Z,3.37
2022-07-31T15:45:17.418Z,4.00
2022-07-31T15:47:47.371Z,2.73
2022-07-31T15:50:20.236Z,3.30
2022-07-31T15:52:49.568Z,2.93
2022-07-31T15:55:19.099Z,2.97
2022-07-31T15:57:47.821Z,2.40
2022-07-31T16:00:17.303Z,2.83
2022-07-31T16:02:45.871Z,2.80
2022-07-31T16:05:36.162Z,2.50
2022-07-31T16:08:29.640Z,2.70
2022-07-31T16:10:55.102Z,2.87
2022-07-31T16:13:24.790Z,2.90
2022-07-31T16:15:54.785Z,2.47
2022-07-31T16:18:23.201Z,2.47
2022-07-31T16:20:53.040Z,3.17
2022-07-31T16:23:21.511Z,3.30
2022-07-31T16:25:49.969Z,2.50
2022-07-31T16:28:18.568Z,2.60
2022-07-31T16:30:47.181Z,2.60
2022-07-31T16:33:15.747Z,2.90
2022-07-31T16:35:47.030Z,3.30
2022-07-31T16:38:16.851Z,3.13
2022-07-31T16:40:45.354Z,3.60
2022-07-31T16:43:48.295Z,2.67
2022-07-31T16:46:02.095Z,2.90
2022-07-31T16:48:31.210Z,3.60
2022-07-31T16:50:59.622Z,3.70
2022-07-31T16:54:11.609Z,2.77
2022-07-31T16:56:19.509Z,2.50
2022-07-31T16:58:52.603Z,2.73
2022-07-31T17:01:58.451Z,3.27
2022-07-31T17:04:11.462Z,3.50
2022-07-31T17:06:39.841Z,3.27
2022-07-31T17:09:16.740Z,3.23
2022-07-31T17:11:49.140Z,2.83
2022-07-31T17:14:18.630Z,2.80
2022-07-31T17:16:49.467Z,2.80
2022-07-31T17:19:43.028Z,2.60
2022-07-31T17:22:11.133Z,2.30
2022-07-31T17:24:41.586Z,2.63
2022-07-31T17:27:10.760Z,2.70
2022-07-31T17:29:39.908Z,2.30
2022-07-31T17:32:11.173Z,2.30
2022-07-31T17:34:40.660Z,2.40
2022-07-31T17:37:09.648Z,2.57
2022-07-31T17:39:38.414Z,3.13
2022-07-31T17:42:09.527Z,1.70
2022-07-31T17:44:38.273Z,3.00
2022-07-31T17:47:09.284Z,2.93
2022-07-31T17:49:38.144Z,3.00
2022-07-31T17:52:07.315Z,3.33
2022-07-31T17:54:35.780Z,2.73
2022-07-31T17:57:05.609Z,2.33
2022-07-31T17:59:35.454Z,2.80
2022-07-31T18:02:04.721Z,2.60
2022-07-31T18:04:36.998Z,2.70
2022-07-31T18:07:07.223Z,3.33
2022-07-31T18:09:36.656Z,2.50
2022-07-31T18:12:06.685Z,2.70
2022-07-31T18:14:37.384Z,2.70
2022-07-31T18:17:06.504Z,2.60
2022-07-31T18:19:35.008Z,2.70
2022-07-31T18:22:03.706Z,2.93
2022-07-31T18:24:32.261Z,2.60
2022-07-31T18:27:00.660Z,2.90
2022-07-31T18:29:29.191Z,2.93
2022-07-31T18:31:58.962Z,2.90
2022-07-31T18:34:27.386Z,2.93
2022-07-31T18:36:55.755Z,3.10
2022-07-31T18:39:24.779Z,3.60
2022-07-31T18:41:53.275Z,3.10
2022-07-31T18:44:22.230Z,2.73
2022-07-31T18:46:50.791Z,2.73
2022-07-31T18:50:58.777Z,3.33
2022-07-31T18:52:10.177Z,3.20
2022-07-31T18:54:39.315Z,3.10
2022-07-31T18:57:08.071Z,3.43
2022-07-31T18:59:36.923Z,3.50
2022-07-31T19:02:06.412Z,3.00
2022-07-31T19:04:41.171Z,3.17
2022-07-31T19:07:10.182Z,2.90
2022-07-31T19:09:39.003Z,2.90
2022-07-31T19:12:08.946Z,3.10
2022-07-31T19:14:38.481Z,2.50
2022-07-31T19:17:07.649Z,3.27
2022-07-31T19:19:52.508Z,3.93
2022-07-31T19:22:25.142Z,2.50
2022-07-31T19:24:54.013Z,2.87
2022-07-31T19:27:22.472Z,3.80
2022-07-31T19:30:13.786Z,3.40
2022-07-31T19:32:42.573Z,2.90
2022-07-31T19:35:11.667Z,3.53
2022-07-31T19:37:41.515Z,3.13
2022-07-31T19:40:11.637Z,3.10
2022-07-31T19:42:40.564Z,3.00
2022-07-31T19:45:09.846Z,3.20
2022-07-31T19:47:38.315Z,4.00
2022-07-31T19:50:08.704Z,3.33
2022-07-31T19:52:37.084Z,3.70
2022-07-31T19:55:09.036Z,3.93
2022-07-31T19:57:37.952Z,4.77
2022-07-31T20:00:09.078Z,3.13
2022-07-31T20:02:38.039Z,3.63
2022-07-31T20:05:08.766Z,2.93
2022-07-31T20:07:38.588Z,4.13
2022-07-31T20:10:10.987Z,2.90
2022-07-31T20:12:40.077Z,2.50
2022-07-31T20:15:10.240Z,2.60
2022-07-31T20:17:39.569Z,3.10
2022-07-31T20:20:15.648Z,2.80
2022-07-31T20:22:44.642Z,3.37
2022-07-31T20:25:19.822Z,2.97
2022-07-31T20:27:50.153Z,3.27
2022-07-31T20:30:21.843Z,3.00
2022-07-31T20:32:51.504Z,3.47
2022-07-31T20:35:45.583Z,3.43
2022-07-31T20:38:15.873Z,3.90
2022-07-31T20:40:54.470Z,3.60
2022-07-31T20:43:24.950Z,3.73
2022-07-31T20:45:53.908Z,3.50
2022-07-31T20:48:24.600Z,3.70
2022-07-31T20:50:53.605Z,3.67
2022-07-31T20:53:23.100Z,3.77
2022-07-31T20:55:52.853Z,3.83
2022-07-31T20:58:23.384Z,3.43
2022-07-31T21:00:53.721Z,3.40
2022-07-31T21:03:22.636Z,3.10
2022-07-31T21:05:51.572Z,3.13
2022-07-31T21:08:20.042Z,3.20
2022-07-31T21:10:48.481Z,3.67
2022-07-31T21:13:18.593Z,3.10
2022-07-31T21:15:47.166Z,2.70
2022-07-31T21:18:17.695Z,10.40
2022-07-31T21:20:50.779Z,3.73
2022-07-31T21:23:23.326Z,3.10
2022-07-31T21:25:52.419Z,3.07
2022-07-31T21:28:23.302Z,3.00
2022-07-31T21:30:53.569Z,2.70
2022-07-31T21:33:22.767Z,3.10
2022-07-31T21:35:51.625Z,2.40
2022-07-31T21:38:21.027Z,2.57
2022-07-31T21:40:50.288Z,2.50
2022-07-31T21:43:22.610Z,2.13
2022-07-31T21:45:57.502Z,2.87
2022-07-31T21:48:31.881Z,2.93
2022-07-31T21:51:01.647Z,2.87
2022-07-31T21:53:30.069Z,3.13
2022-07-31T21:56:00.458Z,2.23
2022-07-31T21:58:28.829Z,2.33
2022-07-31T22:00:58.701Z,2.63
2022-07-31T22:03:27.132Z,2.40
2022-07-31T22:06:12.192Z,2.33
2022-07-31T22:08:40.604Z,2.33
2022-07-31T22:11:09.141Z,2.50
2022-07-31T22:13:37.595Z,2.50
2022-07-31T22:16:07.895Z,2.80
2022-07-31T22:18:37.103Z,2.40
2022-07-31T22:21:08.970Z,2.50
2022-07-31T22:23:37.906Z,2.50
2022-07-31T22:26:06.843Z,2.60
2022-07-31T22:28:35.882Z,2.67
2022-07-31T22:31:06.587Z,2.73
2022-07-31T22:33:35.234Z,2.63
2022-07-31T22:36:07.125Z,2.40
2022-07-31T22:38:37.928Z,1.97
2022-07-31T22:41:06.622Z,2.67
2022-07-31T22:44:12.994Z,2.63
2022-07-31T22:46:25.300Z,2.10
2022-07-31T22:48:56.105Z,2.13
2022-07-31T22:51:25.089Z,2.50
2022-07-31T22:53:53.657Z,2.10
2022-07-31T22:56:29.542Z,2.17
2022-07-31T22:58:58.065Z,2.60
2022-07-31T23:01:27.936Z,3.20
2022-07-31T23:03:56.414Z,2.07
2022-07-31T23:06:30.698Z,2.30
2022-07-31T23:09:01.676Z,2.47
2022-07-31T23:11:30.390Z,2.00
2022-07-31T23:13:58.953Z,2.13
2022-07-31T23:16:28.802Z,2.00
2022-07-31T23:18:57.322Z,2.40
2022-07-31T23:21:25.914Z,2.03
2022-07-31T23:23:54.613Z,2.10
2022-07-31T23:26:26.053Z,1.80
2022-07-31T23:28:56.064Z,1.80
2022-07-31T23:31:24.975Z,2.10
2022-07-31T23:33:55.580Z,1.77
2022-07-31T23:36:24.175Z,1.90
2022-07-31T23:38:53.411Z,2.50
2022-07-31T23:41:42.556Z,1.60
2022-07-31T23:44:10.990Z,1.60
2022-07-31T23:46:40.354Z,2.00
2022-07-31T23:49:10.625Z,1.83
2022-07-31T23:51:39.107Z,1.57
2022-07-31T23:54:08.041Z,1.37
2022-07-31T23:56:36.478Z,1.60
2022-07-31T23:59:05.079Z,2.00
